MOL Explorer — 3EKT8 — position and weather

sailwx.info

Track history (hours):
 
Tides and Currents Weather Stations Pressure Air Temp Water Temp Dewpoint Dewpoint Depression Visibility Wind Speed Wind Dir Waves Ship Positions

MOL Explorer

Last reported at 2016-Sep-04 15:32 UTC. Time now 2016-Sep-25 12:16 UTC.
Position N 01°54' E 102°24'.
Warning: this ship's position is 20 days out of date.

Length 293 m; draft 12 m.

Type: Ship (hazmat cat A). MMSI: 372827000.

Date/timePositionNaut miles runAvg speedWind from/ knotsBaromVisibWave heightAir tempDewpointWater temp
2016-Sep-04 15:32N 01°54' E 102°24'1211.4
2016-Sep-04 14:31N 01°49' E 102°34'1111.3
2016-Sep-04 13:31N 01°44' E 102°45'6712.7
2016-Sep-04 08:14N 01°09' E 103°42'810.6
2016-Sep-04 07:31N 01°11' E 103°49'5 4.9
2016-Sep-04 06:33N 01°16' E 103°50'0 0.1
2016-Sep-04 04:30N 01°16' E 103°50'0 0.0
2016-Sep-04 03:24N 01°16' E 103°50'0 0.0
2016-Sep-04 02:30N 01°16' E 103°50'0 0.0
2016-Sep-04 01:30N 01°16' E 103°50'0 0.0
2016-Sep-04 00:24N 01°16' E 103°50'0 0.0
2016-Sep-03 23:30N 01°16' E 103°50'0 0.0
2016-Sep-03 22:33N 01°16' E 103°50'0 0.0
2016-Sep-03 21:30N 01°16' E 103°50'0 0.0
2016-Sep-03 20:30N 01°16' E 103°50'0 0.0
2016-Sep-03 19:30N 01°16' E 103°50'0 0.0
2016-Sep-03 18:30N 01°16' E 103°50'0 0.0
2016-Sep-03 17:30N 01°16' E 103°50'0 0.0
2016-Sep-03 16:30N 01°16' E 103°50'0 0.0
2016-Sep-03 15:24N 01°16' E 103°50'0 0.0
2016-Sep-03 14:33N 01°16' E 103°50'0 0.0
2016-Sep-03 13:30N 01°16' E 103°50'3 3.2
2016-Sep-03 12:33N 01°14' E 103°53'6 5.9
2016-Sep-03 11:33N 01°15' E 103°58'7 7.2
2016-Sep-03 10:33N 01°17' E 104°05'  
2016-Aug-31 07:05N 22°02' E 114°23'2314.9
2016-Aug-31 05:33N 22°18' E 114°06'2 0.2
2016-Aug-30 15:32N 22°20' E 114°08'10 6.9
2016-Aug-30 14:05N 22°11' E 114°12'711.7
2016-Aug-30 13:29N 22°08' E 114°19'26213.0
2016-Aug-29 17:20N 23°59' E 118°37'2514.0
2016-Aug-29 15:31N 24°16' E 118°58'  
2016-Aug-26 11:24N 34°42' E 139°31'1518.2
2016-Aug-26 10:34N 34°56' E 139°39'1616.4
2016-Aug-26 09:33N 35°11' E 139°45'1212.1
2016-Aug-26 08:33N 35°23' E 139°42'4 3.6
2016-Aug-26 07:32N 35°26' E 139°41'0 0.0
2016-Aug-26 06:32N 35°26' E 139°41'0 0.0
2016-Aug-26 04:32N 35°26' E 139°41'0 0.0
2016-Aug-26 03:32N 35°26' E 139°41'0 0.0
2016-Aug-26 02:32N 35°26' E 139°41'0 0.0
2016-Aug-26 01:32N 35°26' E 139°41'0 0.0
2016-Aug-26 00:32N 35°26' E 139°41'0 0.0
2016-Aug-25 23:32N 35°26' E 139°41'0 0.0
2016-Aug-25 22:32N 35°26' E 139°41'2 1.6
2016-Aug-25 21:33N 35°26' E 139°43'9 9.3
2016-Aug-25 20:34N 35°33' E 139°50'5 4.8
2016-Aug-25 19:31N 35°36' E 139°46'0 0.0
2016-Aug-25 18:31N 35°36' E 139°46'0 0.0
2016-Aug-25 17:31N 35°36' E 139°46'0 0.0
2016-Aug-25 16:31N 35°36' E 139°46'  
Track history (hours):
 
Tides and Currents Weather Stations Pressure Air Temp Water Temp Dewpoint Dewpoint Depression Visibility Wind Speed Wind Dir Waves Ship Positions

MOL Explorer

Last reported at 2016-Sep-04 15:32 UTC. Time now 2016-Sep-25 12:16 UTC.
Position N 01°54' E 102°24'.
Warning: this ship's position is 20 days out of date.

Length 293 m; draft 12 m.

Type: Ship (hazmat cat A). MMSI: 372827000.

Date/timePositionNaut miles runAvg speedWind from/ knotsBaromVisibWave heightAir tempDewpointWater temp
2016-Sep-04 15:32N 01°54' E 102°24'1211.4
2016-Sep-04 14:31N 01°49' E 102°34'1111.3
2016-Sep-04 13:31N 01°44' E 102°45'6712.7
2016-Sep-04 08:14N 01°09' E 103°42'810.6
2016-Sep-04 07:31N 01°11' E 103°49'5 4.9
2016-Sep-04 06:33N 01°16' E 103°50'0 0.1
2016-Sep-04 04:30N 01°16' E 103°50'0 0.0
2016-Sep-04 03:24N 01°16' E 103°50'0 0.0
2016-Sep-04 02:30N 01°16' E 103°50'0 0.0
2016-Sep-04 01:30N 01°16' E 103°50'0 0.0
2016-Sep-04 00:24N 01°16' E 103°50'0 0.0
2016-Sep-03 23:30N 01°16' E 103°50'0 0.0
2016-Sep-03 22:33N 01°16' E 103°50'0 0.0
2016-Sep-03 21:30N 01°16' E 103°50'0 0.0
2016-Sep-03 20:30N 01°16' E 103°50'0 0.0
2016-Sep-03 19:30N 01°16' E 103°50'0 0.0
2016-Sep-03 18:30N 01°16' E 103°50'0 0.0
2016-Sep-03 17:30N 01°16' E 103°50'0 0.0
2016-Sep-03 16:30N 01°16' E 103°50'0 0.0
2016-Sep-03 15:24N 01°16' E 103°50'0 0.0
2016-Sep-03 14:33N 01°16' E 103°50'0 0.0
2016-Sep-03 13:30N 01°16' E 103°50'3 3.2
2016-Sep-03 12:33N 01°14' E 103°53'6 5.9
2016-Sep-03 11:33N 01°15' E 103°58'7 7.2
2016-Sep-03 10:33N 01°17' E 104°05'  
2016-Aug-31 07:05N 22°02' E 114°23'2314.9
2016-Aug-31 05:33N 22°18' E 114°06'2 0.2
2016-Aug-30 15:32N 22°20' E 114°08'10 6.9
2016-Aug-30 14:05N 22°11' E 114°12'711.7
2016-Aug-30 13:29N 22°08' E 114°19'26213.0
2016-Aug-29 17:20N 23°59' E 118°37'2514.0
2016-Aug-29 15:31N 24°16' E 118°58'  
2016-Aug-26 11:24N 34°42' E 139°31'1518.2
2016-Aug-26 10:34N 34°56' E 139°39'1616.4
2016-Aug-26 09:33N 35°11' E 139°45'1212.1
2016-Aug-26 08:33N 35°23' E 139°42'4 3.6
2016-Aug-26 07:32N 35°26' E 139°41'0 0.0
2016-Aug-26 06:32N 35°26' E 139°41'0 0.0
2016-Aug-26 04:32N 35°26' E 139°41'0 0.0
2016-Aug-26 03:32N 35°26' E 139°41'0 0.0
2016-Aug-26 02:32N 35°26' E 139°41'0 0.0
2016-Aug-26 01:32N 35°26' E 139°41'0 0.0
2016-Aug-26 00:32N 35°26' E 139°41'0 0.0
2016-Aug-25 23:32N 35°26' E 139°41'0 0.0
2016-Aug-25 22:32N 35°26' E 139°41'2 1.6
2016-Aug-25 21:33N 35°26' E 139°43'9 9.3
2016-Aug-25 20:34N 35°33' E 139°50'5 4.8
2016-Aug-25 19:31N 35°36' E 139°46'0 0.0
2016-Aug-25 18:31N 35°36' E 139°46'0 0.0
2016-Aug-25 17:31N 35°36' E 139°46'0 0.0
2016-Aug-25 16:31N 35°36' E 139°46'  

Dump ship's entire track history